sensor_id;sensor_type;location;lat;lon;timestamp;P1;durP1;ratioP1;P2;durP2;ratioP2
14599;SDS011;7386;45.586;12.854;2022-09-09T00:01:15;2.00;;;1.70;;
14599;SDS011;7386;45.586;12.854;2022-09-09T00:03:51;2.50;;;1.85;;
14599;SDS011;7386;45.586;12.854;2022-09-09T00:06:23;5.18;;;1.98;;
14599;SDS011;7386;45.586;12.854;2022-09-09T00:08:57;3.53;;;2.03;;
14599;SDS011;7386;45.586;12.854;2022-09-09T00:11:29;6.45;;;2.30;;
14599;SDS011;7386;45.586;12.854;2022-09-09T00:14:00;5.47;;;2.50;;
14599;SDS011;7386;45.586;12.854;2022-09-09T00:16:32;7.00;;;2.45;;
14599;SDS011;7386;45.586;12.854;2022-09-09T00:19:05;7.25;;;2.97;;
14599;SDS011;7386;45.586;12.854;2022-09-09T00:21:36;5.72;;;2.95;;
14599;SDS011;7386;45.586;12.854;2022-09-09T00:24:08;5.15;;;2.80;;
14599;SDS011;7386;45.586;12.854;2022-09-09T00:26:38;6.20;;;3.20;;
14599;SDS011;7386;45.586;12.854;2022-09-09T00:29:10;5.03;;;2.90;;
14599;SDS011;7386;45.586;12.854;2022-09-09T00:31:42;8.30;;;3.55;;
14599;SDS011;7386;45.586;12.854;2022-09-09T00:34:13;10.63;;;3.35;;
14599;SDS011;7386;45.586;12.854;2022-09-09T00:36:42;8.93;;;3.35;;
14599;SDS011;7386;45.586;12.854;2022-09-09T00:39:13;9.38;;;3.40;;
14599;SDS011;7386;45.586;12.854;2022-09-09T00:41:46;6.20;;;3.13;;
14599;SDS011;7386;45.586;12.854;2022-09-09T00:44:21;7.82;;;3.30;;
14599;SDS011;7386;45.586;12.854;2022-09-09T00:46:56;5.70;;;3.13;;
14599;SDS011;7386;45.586;12.854;2022-09-09T00:49:32;5.70;;;3.15;;
14599;SDS011;7386;45.586;12.854;2022-09-09T00:52:08;6.82;;;4.25;;
14599;SDS011;7386;45.586;12.854;2022-09-09T00:54:45;9.10;;;3.67;;
14599;SDS011;7386;45.586;12.854;2022-09-09T00:57:23;7.03;;;3.80;;
14599;SDS011;7386;45.586;12.854;2022-09-09T00:59:56;7.10;;;4.03;;
14599;SDS011;7386;45.586;12.854;2022-09-09T01:02:27;6.35;;;3.80;;
14599;SDS011;7386;45.586;12.854;2022-09-09T01:05:01;7.97;;;4.20;;
14599;SDS011;7386;45.586;12.854;2022-09-09T01:07:33;9.43;;;4.10;;
14599;SDS011;7386;45.586;12.854;2022-09-09T01:10:03;6.80;;;4.07;;
14599;SDS011;7386;45.586;12.854;2022-09-09T01:12:37;9.43;;;4.80;;
14599;SDS011;7386;45.586;12.854;2022-09-09T01:15:08;12.02;;;4.80;;
14599;SDS011;7386;45.586;12.854;2022-09-09T01:17:42;9.90;;;4.60;;
14599;SDS011;7386;45.586;12.854;2022-09-09T01:20:13;11.13;;;5.90;;
14599;SDS011;7386;45.586;12.854;2022-09-09T01:22:44;9.13;;;4.78;;
14599;SDS011;7386;45.586;12.854;2022-09-09T01:28:02;9.93;;;4.90;;
14599;SDS011;7386;45.586;12.854;2022-09-09T01:30:31;10.00;;;5.30;;
14599;SDS011;7386;45.586;12.854;2022-09-09T01:33:01;8.63;;;5.03;;
14599;SDS011;7386;45.586;12.854;2022-09-09T01:35:32;12.23;;;5.05;;
14599;SDS011;7386;45.586;12.854;2022-09-09T01:38:04;9.55;;;5.70;;
14599;SDS011;7386;45.586;12.854;2022-09-09T01:40:33;9.48;;;4.75;;
14599;SDS011;7386;45.586;12.854;2022-09-09T01:43:03;10.80;;;5.38;;
14599;SDS011;7386;45.586;12.854;2022-09-09T01:45:32;12.18;;;5.97;;
14599;SDS011;7386;45.586;12.854;2022-09-09T01:48:02;14.20;;;5.78;;
14599;SDS011;7386;45.586;12.854;2022-09-09T01:50:30;14.00;;;5.20;;
14599;SDS011;7386;45.586;12.854;2022-09-09T01:52:59;9.25;;;6.10;;
14599;SDS011;7386;45.586;12.854;2022-09-09T01:55:30;8.90;;;5.90;;
14599;SDS011;7386;45.586;12.854;2022-09-09T01:58:04;10.82;;;5.18;;
14599;SDS011;7386;45.586;12.854;2022-09-09T02:00:39;7.78;;;5.30;;
14599;SDS011;7386;45.586;12.854;2022-09-09T02:03:12;9.70;;;5.18;;
14599;SDS011;7386;45.586;12.854;2022-09-09T02:05:49;7.60;;;4.95;;
14599;SDS011;7386;45.586;12.854;2022-09-09T02:08:20;10.85;;;5.15;;
14599;SDS011;7386;45.586;12.854;2022-09-09T02:10:50;11.13;;;5.40;;
14599;SDS011;7386;45.586;12.854;2022-09-09T02:13:23;13.50;;;6.22;;
14599;SDS011;7386;45.586;12.854;2022-09-09T02:15:53;11.70;;;4.97;;
14599;SDS011;7386;45.586;12.854;2022-09-09T02:18:24;9.57;;;5.05;;
14599;SDS011;7386;45.586;12.854;2022-09-09T02:20:54;9.50;;;5.95;;
14599;SDS011;7386;45.586;12.854;2022-09-09T02:23:23;8.98;;;5.63;;
14599;SDS011;7386;45.586;12.854;2022-09-09T02:25:52;10.10;;;5.20;;
14599;SDS011;7386;45.586;12.854;2022-09-09T02:28:24;9.32;;;5.82;;
14599;SDS011;7386;45.586;12.854;2022-09-09T02:30:54;11.98;;;5.68;;
14599;SDS011;7386;45.586;12.854;2022-09-09T02:33:25;8.52;;;5.78;;
14599;SDS011;7386;45.586;12.854;2022-09-09T02:35:54;11.27;;;6.10;;
14599;SDS011;7386;45.586;12.854;2022-09-09T02:38:28;9.30;;;5.85;;
14599;SDS011;7386;45.586;12.854;2022-09-09T02:40:58;9.93;;;6.03;;
14599;SDS011;7386;45.586;12.854;2022-09-09T02:43:32;13.23;;;6.38;;
14599;SDS011;7386;45.586;12.854;2022-09-09T02:46:03;10.50;;;5.97;;
14599;SDS011;7386;45.586;12.854;2022-09-09T02:48:39;8.82;;;5.80;;
14599;SDS011;7386;45.586;12.854;2022-09-09T02:51:14;11.48;;;6.93;;
14599;SDS011;7386;45.586;12.854;2022-09-09T02:53:46;10.90;;;6.00;;
14599;SDS011;7386;45.586;12.854;2022-09-09T02:56:16;7.28;;;5.50;;
14599;SDS011;7386;45.586;12.854;2022-09-09T02:58:47;9.75;;;5.20;;
14599;SDS011;7386;45.586;12.854;2022-09-09T03:01:18;8.18;;;5.95;;
14599;SDS011;7386;45.586;12.854;2022-09-09T03:03:47;6.93;;;5.43;;
14599;SDS011;7386;45.586;12.854;2022-09-09T03:06:15;12.63;;;5.85;;
14599;SDS011;7386;45.586;12.854;2022-09-09T03:08:43;9.25;;;5.88;;
14599;SDS011;7386;45.586;12.854;2022-09-09T03:11:15;10.18;;;5.93;;
14599;SDS011;7386;45.586;12.854;2022-09-09T03:13:43;8.82;;;6.07;;
14599;SDS011;7386;45.586;12.854;2022-09-09T03:16:13;10.40;;;6.35;;
14599;SDS011;7386;45.586;12.854;2022-09-09T03:18:42;9.32;;;5.78;;
14599;SDS011;7386;45.586;12.854;2022-09-09T03:21:12;8.68;;;5.82;;
14599;SDS011;7386;45.586;12.854;2022-09-09T03:23:41;8.13;;;6.15;;
14599;SDS011;7386;45.586;12.854;2022-09-09T03:26:11;11.18;;;7.22;;
14599;SDS011;7386;45.586;12.854;2022-09-09T03:28:41;10.68;;;7.00;;
14599;SDS011;7386;45.586;12.854;2022-09-09T03:31:11;11.35;;;7.10;;
14599;SDS011;7386;45.586;12.854;2022-09-09T03:33:41;12.27;;;6.97;;
14599;SDS011;7386;45.586;12.854;2022-09-09T03:36:09;11.13;;;7.13;;
14599;SDS011;7386;45.586;12.854;2022-09-09T03:38:38;15.95;;;7.70;;
14599;SDS011;7386;45.586;12.854;2022-09-09T03:41:06;12.40;;;8.75;;
14599;SDS011;7386;45.586;12.854;2022-09-09T03:43:35;12.60;;;8.07;;
14599;SDS011;7386;45.586;12.854;2022-09-09T03:46:04;11.40;;;7.55;;
14599;SDS011;7386;45.586;12.854;2022-09-09T03:48:33;10.15;;;7.18;;
14599;SDS011;7386;45.586;12.854;2022-09-09T03:51:03;11.55;;;7.20;;
14599;SDS011;7386;45.586;12.854;2022-09-09T03:53:31;10.98;;;6.50;;
14599;SDS011;7386;45.586;12.854;2022-09-09T03:56:00;10.88;;;7.22;;
14599;SDS011;7386;45.586;12.854;2022-09-09T03:58:29;10.77;;;6.82;;
14599;SDS011;7386;45.586;12.854;2022-09-09T04:00:58;11.35;;;7.10;;
14599;SDS011;7386;45.586;12.854;2022-09-09T04:03:28;11.70;;;7.05;;
14599;SDS011;7386;45.586;12.854;2022-09-09T04:05:57;9.45;;;6.68;;
14599;SDS011;7386;45.586;12.854;2022-09-09T04:08:28;8.93;;;6.68;;
14599;SDS011;7386;45.586;12.854;2022-09-09T04:10:57;10.73;;;7.00;;
14599;SDS011;7386;45.586;12.854;2022-09-09T04:13:28;9.55;;;6.35;;
14599;SDS011;7386;45.586;12.854;2022-09-09T04:15:57;10.30;;;6.88;;
14599;SDS011;7386;45.586;12.854;2022-09-09T04:18:26;11.20;;;6.40;;
14599;SDS011;7386;45.586;12.854;2022-09-09T04:20:55;8.32;;;6.20;;
14599;SDS011;7386;45.586;12.854;2022-09-09T04:23:24;9.18;;;7.00;;
14599;SDS011;7386;45.586;12.854;2022-09-09T04:25:56;10.63;;;6.05;;
14599;SDS011;7386;45.586;12.854;2022-09-09T04:28:26;10.85;;;6.50;;
14599;SDS011;7386;45.586;12.854;2022-09-09T04:30:55;10.05;;;6.13;;
14599;SDS011;7386;45.586;12.854;2022-09-09T04:33:24;9.50;;;5.82;;
14599;SDS011;7386;45.586;12.854;2022-09-09T04:35:53;10.38;;;6.10;;
14599;SDS011;7386;45.586;12.854;2022-09-09T04:38:22;13.40;;;6.05;;
14599;SDS011;7386;45.586;12.854;2022-09-09T04:40:52;8.77;;;5.93;;
14599;SDS011;7386;45.586;12.854;2022-09-09T04:43:22;10.52;;;5.22;;
14599;SDS011;7386;45.586;12.854;2022-09-09T04:45:52;9.52;;;5.40;;
14599;SDS011;7386;45.586;12.854;2022-09-09T04:48:20;8.25;;;4.68;;
14599;SDS011;7386;45.586;12.854;2022-09-09T04:50:54;7.80;;;5.43;;
14599;SDS011;7386;45.586;12.854;2022-09-09T04:53:23;9.77;;;5.40;;
14599;SDS011;7386;45.586;12.854;2022-09-09T04:55:51;9.50;;;5.32;;
14599;SDS011;7386;45.586;12.854;2022-09-09T04:58:22;7.43;;;4.93;;
14599;SDS011;7386;45.586;12.854;2022-09-09T05:00:50;8.73;;;4.82;;
14599;SDS011;7386;45.586;12.854;2022-09-09T05:03:19;8.25;;;5.03;;
14599;SDS011;7386;45.586;12.854;2022-09-09T05:05:47;7.32;;;4.85;;
14599;SDS011;7386;45.586;12.854;2022-09-09T05:08:16;7.43;;;4.78;;
14599;SDS011;7386;45.586;12.854;2022-09-09T05:10:44;9.88;;;5.35;;
14599;SDS011;7386;45.586;12.854;2022-09-09T05:13:13;6.72;;;4.80;;
14599;SDS011;7386;45.586;12.854;2022-09-09T05:15:42;12.38;;;5.38;;
14599;SDS011;7386;45.586;12.854;2022-09-09T05:18:19;10.75;;;5.35;;
14599;SDS011;7386;45.586;12.854;2022-09-09T05:20:48;13.70;;;6.03;;
14599;SDS011;7386;45.586;12.854;2022-09-09T05:23:17;7.55;;;4.93;;
14599;SDS011;7386;45.586;12.854;2022-09-09T05:25:54;9.13;;;5.30;;
14599;SDS011;7386;45.586;12.854;2022-09-09T05:28:26;9.32;;;5.65;;
14599;SDS011;7386;45.586;12.854;2022-09-09T05:30:57;7.68;;;4.97;;
14599;SDS011;7386;45.586;12.854;2022-09-09T05:33:27;9.13;;;5.65;;
14599;SDS011;7386;45.586;12.854;2022-09-09T05:35:59;10.10;;;5.90;;
14599;SDS011;7386;45.586;12.854;2022-09-09T05:38:28;10.52;;;5.80;;
14599;SDS011;7386;45.586;12.854;2022-09-09T05:40:56;9.98;;;5.53;;
14599;SDS011;7386;45.586;12.854;2022-09-09T05:43:25;7.88;;;4.95;;
14599;SDS011;7386;45.586;12.854;2022-09-09T05:46:00;8.57;;;5.70;;
14599;SDS011;7386;45.586;12.854;2022-09-09T05:48:29;9.15;;;5.32;;
14599;SDS011;7386;45.586;12.854;2022-09-09T05:50:58;9.70;;;5.65;;
14599;SDS011;7386;45.586;12.854;2022-09-09T05:53:27;9.88;;;5.10;;
14599;SDS011;7386;45.586;12.854;2022-09-09T05:55:59;10.90;;;5.20;;
14599;SDS011;7386;45.586;12.854;2022-09-09T05:58:29;9.15;;;5.60;;
14599;SDS011;7386;45.586;12.854;2022-09-09T06:01:03;7.90;;;5.90;;
14599;SDS011;7386;45.586;12.854;2022-09-09T06:03:33;11.40;;;5.60;;
14599;SDS011;7386;45.586;12.854;2022-09-09T06:06:02;9.25;;;5.50;;
14599;SDS011;7386;45.586;12.854;2022-09-09T06:08:32;7.15;;;5.50;;
14599;SDS011;7386;45.586;12.854;2022-09-09T06:11:03;11.65;;;5.88;;
14599;SDS011;7386;45.586;12.854;2022-09-09T06:13:32;14.13;;;6.05;;
14599;SDS011;7386;45.586;12.854;2022-09-09T06:16:03;11.27;;;5.35;;
14599;SDS011;7386;45.586;12.854;2022-09-09T06:18:31;9.10;;;5.32;;
14599;SDS011;7386;45.586;12.854;2022-09-09T06:21:01;10.80;;;5.35;;
14599;SDS011;7386;45.586;12.854;2022-09-09T06:23:30;7.72;;;5.03;;
14599;SDS011;7386;45.586;12.854;2022-09-09T06:26:02;9.40;;;5.72;;
14599;SDS011;7386;45.586;12.854;2022-09-09T06:28:32;10.10;;;5.70;;
14599;SDS011;7386;45.586;12.854;2022-09-09T06:31:04;11.38;;;5.40;;
14599;SDS011;7386;45.586;12.854;2022-09-09T06:33:33;11.98;;;5.22;;
14599;SDS011;7386;45.586;12.854;2022-09-09T06:36:02;7.35;;;4.95;;
14599;SDS011;7386;45.586;12.854;2022-09-09T06:38:31;6.10;;;4.45;;
14599;SDS011;7386;45.586;12.854;2022-09-09T06:41:00;5.20;;;4.40;;
14599;SDS011;7386;45.586;12.854;2022-09-09T06:43:28;7.20;;;4.47;;
14599;SDS011;7386;45.586;12.854;2022-09-09T06:45:58;6.38;;;4.85;;
14599;SDS011;7386;45.586;12.854;2022-09-09T06:48:28;10.80;;;5.10;;
14599;SDS011;7386;45.586;12.854;2022-09-09T06:51:00;7.18;;;4.63;;
14599;SDS011;7386;45.586;12.854;2022-09-09T06:53:29;5.82;;;4.55;;
14599;SDS011;7386;45.586;12.854;2022-09-09T06:55:59;8.20;;;4.53;;
14599;SDS011;7386;45.586;12.854;2022-09-09T06:58:28;6.65;;;4.82;;
14599;SDS011;7386;45.586;12.854;2022-09-09T07:01:01;8.38;;;4.88;;
14599;SDS011;7386;45.586;12.854;2022-09-09T07:03:32;9.07;;;4.72;;
14599;SDS011;7386;45.586;12.854;2022-09-09T07:06:01;9.77;;;4.72;;
14599;SDS011;7386;45.586;12.854;2022-09-09T07:08:30;9.13;;;4.68;;
14599;SDS011;7386;45.586;12.854;2022-09-09T07:11:01;10.45;;;5.15;;
14599;SDS011;7386;45.586;12.854;2022-09-09T07:13:35;10.32;;;5.43;;
14599;SDS011;7386;45.586;12.854;2022-09-09T07:16:04;12.45;;;5.60;;
14599;SDS011;7386;45.586;12.854;2022-09-09T07:18:35;10.50;;;5.55;;
14599;SDS011;7386;45.586;12.854;2022-09-09T07:21:03;18.23;;;5.90;;
14599;SDS011;7386;45.586;12.854;2022-09-09T07:23:32;9.93;;;5.25;;
14599;SDS011;7386;45.586;12.854;2022-09-09T07:26:02;7.95;;;4.72;;
14599;SDS011;7386;45.586;12.854;2022-09-09T07:28:30;6.70;;;4.57;;
14599;SDS011;7386;45.586;12.854;2022-09-09T07:31:01;8.80;;;4.93;;
14599;SDS011;7386;45.586;12.854;2022-09-09T07:33:31;13.45;;;5.82;;
14599;SDS011;7386;45.586;12.854;2022-09-09T07:36:06;11.73;;;5.32;;
14599;SDS011;7386;45.586;12.854;2022-09-09T07:38:38;12.52;;;5.53;;
14599;SDS011;7386;45.586;12.854;2022-09-09T07:41:07;17.50;;;5.55;;
14599;SDS011;7386;45.586;12.854;2022-09-09T07:43:38;8.75;;;5.32;;
14599;SDS011;7386;45.586;12.854;2022-09-09T07:46:07;11.85;;;5.10;;
14599;SDS011;7386;45.586;12.854;2022-09-09T07:48:36;19.95;;;5.97;;
14599;SDS011;7386;45.586;12.854;2022-09-09T07:51:07;29.05;;;6.80;;
14599;SDS011;7386;45.586;12.854;2022-09-09T07:53:41;32.75;;;8.25;;
14599;SDS011;7386;45.586;12.854;2022-09-09T07:56:11;29.30;;;7.15;;
14599;SDS011;7386;45.586;12.854;2022-09-09T07:58:40;26.73;;;7.13;;
14599;SDS011;7386;45.586;12.854;2022-09-09T08:01:09;25.40;;;7.22;;
14599;SDS011;7386;45.586;12.854;2022-09-09T08:03:39;23.45;;;7.70;;
14599;SDS011;7386;45.586;12.854;2022-09-09T08:06:11;28.05;;;7.68;;
14599;SDS011;7386;45.586;12.854;2022-09-09T08:08:40;25.85;;;6.57;;
14599;SDS011;7386;45.586;12.854;2022-09-09T08:11:10;22.05;;;6.35;;
14599;SDS011;7386;45.586;12.854;2022-09-09T08:13:39;17.85;;;6.13;;
14599;SDS011;7386;45.586;12.854;2022-09-09T08:16:08;15.05;;;6.18;;
14599;SDS011;7386;45.586;12.854;2022-09-09T08:18:40;12.23;;;5.82;;
14599;SDS011;7386;45.586;12.854;2022-09-09T08:21:11;11.25;;;5.50;;
14599;SDS011;7386;45.586;12.854;2022-09-09T08:23:42;9.38;;;5.72;;
14599;SDS011;7386;45.586;12.854;2022-09-09T08:26:12;14.98;;;6.90;;
14599;SDS011;7386;45.586;12.854;2022-09-09T08:28:43;15.15;;;9.02;;
14599;SDS011;7386;45.586;12.854;2022-09-09T08:31:12;17.02;;;8.50;;
14599;SDS011;7386;45.586;12.854;2022-09-09T08:33:41;16.05;;;9.10;;
14599;SDS011;7386;45.586;12.854;2022-09-09T08:36:14;20.33;;;8.55;;
14599;SDS011;7386;45.586;12.854;2022-09-09T08:38:43;22.75;;;8.93;;
14599;SDS011;7386;45.586;12.854;2022-09-09T08:44:02;12.38;;;6.15;;
14599;SDS011;7386;45.586;12.854;2022-09-09T08:46:34;8.77;;;4.18;;
14599;SDS011;7386;45.586;12.854;2022-09-09T08:49:06;8.95;;;4.45;;
14599;SDS011;7386;45.586;12.854;2022-09-09T08:51:42;10.38;;;4.32;;
14599;SDS011;7386;45.586;12.854;2022-09-09T08:54:10;11.43;;;4.57;;
14599;SDS011;7386;45.586;12.854;2022-09-09T08:56:39;10.68;;;3.58;;
14599;SDS011;7386;45.586;12.854;2022-09-09T08:59:07;10.35;;;3.95;;
14599;SDS011;7386;45.586;12.854;2022-09-09T09:01:40;12.10;;;5.57;;
14599;SDS011;7386;45.586;12.854;2022-09-09T09:04:19;11.32;;;6.13;;
14599;SDS011;7386;45.586;12.854;2022-09-09T09:06:54;11.80;;;6.70;;
14599;SDS011;7386;45.586;12.854;2022-09-09T09:09:24;13.43;;;7.13;;
14599;SDS011;7386;45.586;12.854;2022-09-09T09:11:55;17.35;;;7.70;;
14599;SDS011;7386;45.586;12.854;2022-09-09T09:14:28;8.60;;;4.70;;
14599;SDS011;7386;45.586;12.854;2022-09-09T09:17:01;11.85;;;4.95;;
14599;SDS011;7386;45.586;12.854;2022-09-09T09:19:31;12.27;;;4.60;;
14599;SDS011;7386;45.586;12.854;2022-09-09T09:22:03;19.05;;;4.32;;
14599;SDS011;7386;45.586;12.854;2022-09-09T09:24:35;12.80;;;3.97;;
14599;SDS011;7386;45.586;12.854;2022-09-09T09:27:11;15.25;;;4.15;;
14599;SDS011;7386;45.586;12.854;2022-09-09T09:29:40;17.85;;;4.82;;
14599;SDS011;7386;45.586;12.854;2022-09-09T09:32:31;13.38;;;5.25;;
14599;SDS011;7386;45.586;12.854;2022-09-09T09:35:02;15.68;;;4.75;;
14599;SDS011;7386;45.586;12.854;2022-09-09T09:37:34;11.32;;;4.50;;
14599;SDS011;7386;45.586;12.854;2022-09-09T09:40:09;13.73;;;3.63;;
14599;SDS011;7386;45.586;12.854;2022-09-09T09:42:46;10.38;;;3.60;;
14599;SDS011;7386;45.586;12.854;2022-09-09T09:45:21;9.50;;;3.65;;
14599;SDS011;7386;45.586;12.854;2022-09-09T09:47:57;10.07;;;3.85;;
14599;SDS011;7386;45.586;12.854;2022-09-09T09:50:32;16.25;;;3.53;;
14599;SDS011;7386;45.586;12.854;2022-09-09T09:53:03;10.63;;;4.55;;
14599;SDS011;7386;45.586;12.854;2022-09-09T09:55:32;16.60;;;4.07;;
14599;SDS011;7386;45.586;12.854;2022-09-09T09:58:03;13.32;;;4.68;;
14599;SDS011;7386;45.586;12.854;2022-09-09T10:00:32;16.52;;;5.72;;
14599;SDS011;7386;45.586;12.854;2022-09-09T10:03:02;14.15;;;5.53;;
14599;SDS011;7386;45.586;12.854;2022-09-09T10:05:44;17.95;;;6.00;;
14599;SDS011;7386;45.586;12.854;2022-09-09T10:08:15;17.15;;;6.72;;
14599;SDS011;7386;45.586;12.854;2022-09-09T10:13:31;15.57;;;5.07;;
14599;SDS011;7386;45.586;12.854;2022-09-09T10:16:07;11.07;;;4.20;;
14599;SDS011;7386;45.586;12.854;2022-09-09T10:18:41;14.88;;;4.82;;
14599;SDS011;7386;45.586;12.854;2022-09-09T10:21:18;15.82;;;5.45;;
14599;SDS011;7386;45.586;12.854;2022-09-09T10:23:56;16.02;;;6.50;;
14599;SDS011;7386;45.586;12.854;2022-09-09T10:26:32;13.40;;;5.60;;
14599;SDS011;7386;45.586;12.854;2022-09-09T10:29:13;13.20;;;6.18;;
14599;SDS011;7386;45.586;12.854;2022-09-09T10:31:46;14.95;;;7.07;;
14599;SDS011;7386;45.586;12.854;2022-09-09T10:34:19;9.85;;;5.57;;
14599;SDS011;7386;45.586;12.854;2022-09-09T10:36:56;13.43;;;6.55;;
14599;SDS011;7386;45.586;12.854;2022-09-09T10:39:32;12.82;;;6.40;;
14599;SDS011;7386;45.586;12.854;2022-09-09T10:42:09;11.27;;;5.55;;
14599;SDS011;7386;45.586;12.854;2022-09-09T10:44:54;11.15;;;5.72;;
14599;SDS011;7386;45.586;12.854;2022-09-09T10:47:40;15.70;;;6.07;;
14599;SDS011;7386;45.586;12.854;2022-09-09T10:50:18;10.55;;;6.15;;
14599;SDS011;7386;45.586;12.854;2022-09-09T10:52:57;14.23;;;6.43;;
14599;SDS011;7386;45.586;12.854;2022-09-09T10:55:35;12.68;;;6.03;;
14599;SDS011;7386;45.586;12.854;2022-09-09T10:58:05;10.57;;;5.03;;
14599;SDS011;7386;45.586;12.854;2022-09-09T11:00:37;11.68;;;7.15;;
14599;SDS011;7386;45.586;12.854;2022-09-09T11:03:10;15.75;;;8.52;;
14599;SDS011;7386;45.586;12.854;2022-09-09T11:05:41;13.60;;;5.57;;
14599;SDS011;7386;45.586;12.854;2022-09-09T11:08:12;10.40;;;5.28;;
14599;SDS011;7386;45.586;12.854;2022-09-09T11:10:48;11.38;;;6.82;;
14599;SDS011;7386;45.586;12.854;2022-09-09T11:13:24;12.60;;;8.55;;
14599;SDS011;7386;45.586;12.854;2022-09-09T11:15:55;16.23;;;9.90;;
14599;SDS011;7386;45.586;12.854;2022-09-09T11:18:29;16.02;;;7.05;;
14599;SDS011;7386;45.586;12.854;2022-09-09T11:21:01;10.80;;;6.25;;
14599;SDS011;7386;45.586;12.854;2022-09-09T11:23:33;9.45;;;5.10;;
14599;SDS011;7386;45.586;12.854;2022-09-09T11:26:10;9.82;;;4.05;;
14599;SDS011;7386;45.586;12.854;2022-09-09T11:28:44;12.38;;;5.25;;
14599;SDS011;7386;45.586;12.854;2022-09-09T11:31:21;13.85;;;4.35;;
14599;SDS011;7386;45.586;12.854;2022-09-09T11:33:59;10.60;;;4.55;;
14599;SDS011;7386;45.586;12.854;2022-09-09T11:36:36;9.68;;;4.22;;
14599;SDS011;7386;45.586;12.854;2022-09-09T11:39:12;14.27;;;9.75;;
14599;SDS011;7386;45.586;12.854;2022-09-09T11:41:44;27.73;;;17.92;;
14599;SDS011;7386;45.586;12.854;2022-09-09T11:44:13;30.85;;;19.58;;
14599;SDS011;7386;45.586;12.854;2022-09-09T11:46:45;24.80;;;14.60;;
14599;SDS011;7386;45.586;12.854;2022-09-09T11:49:25;19.10;;;11.65;;
14599;SDS011;7386;45.586;12.854;2022-09-09T11:51:54;26.08;;;14.95;;
14599;SDS011;7386;45.586;12.854;2022-09-09T11:54:27;21.58;;;8.18;;
14599;SDS011;7386;45.586;12.854;2022-09-09T11:56:58;17.90;;;8.23;;
14599;SDS011;7386;45.586;12.854;2022-09-09T11:59:27;19.15;;;12.07;;
14599;SDS011;7386;45.586;12.854;2022-09-09T12:01:56;26.17;;;12.75;;
14599;SDS011;7386;45.586;12.854;2022-09-09T12:04:27;19.50;;;9.40;;
14599;SDS011;7386;45.586;12.854;2022-09-09T12:06:58;12.02;;;5.68;;
14599;SDS011;7386;45.586;12.854;2022-09-09T12:09:33;17.48;;;6.72;;
14599;SDS011;7386;45.586;12.854;2022-09-09T12:14:56;8.43;;;3.78;;
14599;SDS011;7386;45.586;12.854;2022-09-09T12:17:26;14.60;;;5.13;;
14599;SDS011;7386;45.586;12.854;2022-09-09T12:20:03;20.25;;;9.63;;
14599;SDS011;7386;45.586;12.854;2022-09-09T12:22:35;29.95;;;16.63;;
14599;SDS011;7386;45.586;12.854;2022-09-09T12:25:09;24.88;;;14.35;;
14599;SDS011;7386;45.586;12.854;2022-09-09T12:27:50;26.75;;;14.95;;
14599;SDS011;7386;45.586;12.854;2022-09-09T12:30:25;22.30;;;12.82;;
14599;SDS011;7386;45.586;12.854;2022-09-09T12:33:01;15.02;;;5.03;;
14599;SDS011;7386;45.586;12.854;2022-09-09T12:35:29;13.30;;;6.65;;
14599;SDS011;7386;45.586;12.854;2022-09-09T12:37:58;13.45;;;6.13;;
14599;SDS011;7386;45.586;12.854;2022-09-09T12:40:29;13.05;;;4.43;;
14599;SDS011;7386;45.586;12.854;2022-09-09T12:42:58;13.20;;;5.70;;
14599;SDS011;7386;45.586;12.854;2022-09-09T12:45:29;15.50;;;8.05;;
14599;SDS011;7386;45.586;12.854;2022-09-09T12:47:59;20.88;;;12.05;;
14599;SDS011;7386;45.586;12.854;2022-09-09T12:50:29;11.25;;;5.82;;
14599;SDS011;7386;45.586;12.854;2022-09-09T12:52:58;11.73;;;5.85;;
14599;SDS011;7386;45.586;12.854;2022-09-09T12:55:28;17.48;;;10.48;;
14599;SDS011;7386;45.586;12.854;2022-09-09T12:58:00;17.98;;;11.50;;
14599;SDS011;7386;45.586;12.854;2022-09-09T13:00:32;17.27;;;11.63;;
14599;SDS011;7386;45.586;12.854;2022-09-09T13:03:02;12.82;;;5.93;;
14599;SDS011;7386;45.586;12.854;2022-09-09T13:05:34;11.60;;;4.38;;
14599;SDS011;7386;45.586;12.854;2022-09-09T13:08:03;15.10;;;6.03;;
14599;SDS011;7386;45.586;12.854;2022-09-09T13:10:35;16.73;;;9.65;;
14599;SDS011;7386;45.586;12.854;2022-09-09T13:13:20;17.35;;;6.80;;
14599;SDS011;7386;45.586;12.854;2022-09-09T13:15:52;14.43;;;3.80;;
14599;SDS011;7386;45.586;12.854;2022-09-09T13:18:21;16.05;;;5.28;;
14599;SDS011;7386;45.586;12.854;2022-09-09T13:20:51;19.85;;;5.38;;
14599;SDS011;7386;45.586;12.854;2022-09-09T13:23:20;16.38;;;6.55;;
14599;SDS011;7386;45.586;12.854;2022-09-09T13:25:55;14.57;;;6.22;;
14599;SDS011;7386;45.586;12.854;2022-09-09T13:28:25;17.38;;;5.72;;
14599;SDS011;7386;45.586;12.854;2022-09-09T13:31:01;6.75;;;2.75;;
14599;SDS011;7386;45.586;12.854;2022-09-09T13:33:31;8.38;;;2.78;;
14599;SDS011;7386;45.586;12.854;2022-09-09T13:36:01;4.90;;;2.28;;
14599;SDS011;7386;45.586;12.854;2022-09-09T13:38:32;8.05;;;1.95;;
14599;SDS011;7386;45.586;12.854;2022-09-09T13:41:02;4.88;;;2.10;;
14599;SDS011;7386;45.586;12.854;2022-09-09T13:43:31;9.88;;;2.33;;
14599;SDS011;7386;45.586;12.854;2022-09-09T13:46:03;16.08;;;2.63;;
14599;SDS011;7386;45.586;12.854;2022-09-09T13:48:33;7.97;;;2.75;;
14599;SDS011;7386;45.586;12.854;2022-09-09T13:51:02;11.32;;;2.40;;
14599;SDS011;7386;45.586;12.854;2022-09-09T13:53:34;6.57;;;2.50;;
14599;SDS011;7386;45.586;12.854;2022-09-09T13:56:03;6.35;;;2.75;;
14599;SDS011;7386;45.586;12.854;2022-09-09T13:58:31;7.35;;;4.50;;
14599;SDS011;7386;45.586;12.854;2022-09-09T14:01:00;8.75;;;3.85;;
14599;SDS011;7386;45.586;12.854;2022-09-09T14:03:32;8.38;;;4.40;;
14599;SDS011;7386;45.586;12.854;2022-09-09T14:06:00;6.60;;;2.97;;
14599;SDS011;7386;45.586;12.854;2022-09-09T14:08:29;11.25;;;3.03;;
14599;SDS011;7386;45.586;12.854;2022-09-09T14:11:03;5.25;;;2.63;;
14599;SDS011;7386;45.586;12.854;2022-09-09T14:13:32;6.85;;;3.78;;
14599;SDS011;7386;45.586;12.854;2022-09-09T14:16:00;5.95;;;3.25;;
14599;SDS011;7386;45.586;12.854;2022-09-09T14:18:33;4.72;;;2.97;;
14599;SDS011;7386;45.586;12.854;2022-09-09T14:21:05;7.93;;;3.95;;
14599;SDS011;7386;45.586;12.854;2022-09-09T14:23:35;9.70;;;5.03;;
14599;SDS011;7386;45.586;12.854;2022-09-09T14:26:04;10.80;;;6.63;;
14599;SDS011;7386;45.586;12.854;2022-09-09T14:28:33;7.78;;;3.88;;
14599;SDS011;7386;45.586;12.854;2022-09-09T14:31:20;4.40;;;2.97;;
14599;SDS011;7386;45.586;12.854;2022-09-09T14:33:50;5.90;;;2.80;;
14599;SDS011;7386;45.586;12.854;2022-09-09T14:36:19;6.80;;;2.67;;
14599;SDS011;7386;45.586;12.854;2022-09-09T14:38:47;7.82;;;2.45;;
14599;SDS011;7386;45.586;12.854;2022-09-09T14:41:18;4.13;;;2.00;;
14599;SDS011;7386;45.586;12.854;2022-09-09T14:43:48;6.25;;;3.05;;
14599;SDS011;7386;45.586;12.854;2022-09-09T14:46:18;10.10;;;6.32;;
14599;SDS011;7386;45.586;12.854;2022-09-09T14:48:47;14.45;;;8.10;;
14599;SDS011;7386;45.586;12.854;2022-09-09T14:51:18;9.93;;;4.50;;
14599;SDS011;7386;45.586;12.854;2022-09-09T14:53:50;6.35;;;3.30;;
14599;SDS011;7386;45.586;12.854;2022-09-09T14:56:23;7.53;;;2.67;;
14599;SDS011;7386;45.586;12.854;2022-09-09T14:58:52;4.88;;;2.10;;
14599;SDS011;7386;45.586;12.854;2022-09-09T15:01:21;3.38;;;1.83;;
14599;SDS011;7386;45.586;12.854;2022-09-09T15:03:51;6.88;;;2.55;;
14599;SDS011;7386;45.586;12.854;2022-09-09T15:06:23;7.50;;;3.00;;
14599;SDS011;7386;45.586;12.854;2022-09-09T15:08:52;2.55;;;2.28;;
14599;SDS011;7386;45.586;12.854;2022-09-09T15:11:25;3.58;;;2.25;;
14599;SDS011;7386;45.586;12.854;2022-09-09T15:13:54;4.50;;;2.40;;
14599;SDS011;7386;45.586;12.854;2022-09-09T15:16:25;4.45;;;2.38;;